sensor_id;sensor_type;location;lat;lon;timestamp;P1;durP1;ratioP1;P2;durP2;ratioP2
15246;SDS011;7726;48.820;9.248;2023-03-19T00:01:54;7.87;;;5.97;;
15246;SDS011;7726;48.820;9.248;2023-03-19T00:04:22;11.53;;;6.50;;
15246;SDS011;7726;48.820;9.248;2023-03-19T00:06:49;9.33;;;6.10;;
15246;SDS011;7726;48.820;9.248;2023-03-19T00:09:16;9.10;;;6.20;;
15246;SDS011;7726;48.820;9.248;2023-03-19T00:11:44;9.63;;;6.63;;
15246;SDS011;7726;48.820;9.248;2023-03-19T00:14:12;9.80;;;6.70;;
15246;SDS011;7726;48.820;9.248;2023-03-19T00:16:40;9.73;;;6.63;;
15246;SDS011;7726;48.820;9.248;2023-03-19T00:19:07;8.67;;;6.10;;
15246;SDS011;7726;48.820;9.248;2023-03-19T00:21:34;9.90;;;7.10;;
15246;SDS011;7726;48.820;9.248;2023-03-19T00:24:02;8.73;;;5.83;;
15246;SDS011;7726;48.820;9.248;2023-03-19T00:26:29;11.70;;;6.83;;
15246;SDS011;7726;48.820;9.248;2023-03-19T00:28:57;10.07;;;6.80;;
15246;SDS011;7726;48.820;9.248;2023-03-19T00:31:26;12.03;;;6.20;;
15246;SDS011;7726;48.820;9.248;2023-03-19T00:33:55;7.83;;;6.17;;
15246;SDS011;7726;48.820;9.248;2023-03-19T00:36:22;10.40;;;6.60;;
15246;SDS011;7726;48.820;9.248;2023-03-19T00:38:50;8.07;;;6.20;;
15246;SDS011;7726;48.820;9.248;2023-03-19T00:41:17;10.50;;;6.70;;
15246;SDS011;7726;48.820;9.248;2023-03-19T00:43:44;10.83;;;6.10;;
15246;SDS011;7726;48.820;9.248;2023-03-19T00:46:12;9.17;;;6.43;;
15246;SDS011;7726;48.820;9.248;2023-03-19T00:48:41;8.17;;;6.63;;
15246;SDS011;7726;48.820;9.248;2023-03-19T00:51:08;12.73;;;6.50;;
15246;SDS011;7726;48.820;9.248;2023-03-19T00:53:36;10.33;;;6.30;;
15246;SDS011;7726;48.820;9.248;2023-03-19T00:56:04;10.27;;;6.27;;
15246;SDS011;7726;48.820;9.248;2023-03-19T00:58:31;10.13;;;6.63;;
15246;SDS011;7726;48.820;9.248;2023-03-19T01:00:59;7.60;;;5.83;;
15246;SDS011;7726;48.820;9.248;2023-03-19T01:03:26;7.53;;;6.00;;
15246;SDS011;7726;48.820;9.248;2023-03-19T01:05:55;7.10;;;5.97;;
15246;SDS011;7726;48.820;9.248;2023-03-19T01:08:23;8.90;;;5.73;;
15246;SDS011;7726;48.820;9.248;2023-03-19T01:10:51;8.60;;;6.00;;
15246;SDS011;7726;48.820;9.248;2023-03-19T01:13:18;7.83;;;6.00;;
15246;SDS011;7726;48.820;9.248;2023-03-19T01:15:45;10.47;;;5.90;;
15246;SDS011;7726;48.820;9.248;2023-03-19T01:18:13;6.90;;;5.90;;
15246;SDS011;7726;48.820;9.248;2023-03-19T01:20:40;8.07;;;5.67;;
15246;SDS011;7726;48.820;9.248;2023-03-19T01:23:08;11.63;;;5.90;;
15246;SDS011;7726;48.820;9.248;2023-03-19T01:25:37;7.77;;;6.03;;
15246;SDS011;7726;48.820;9.248;2023-03-19T01:28:04;8.37;;;6.20;;
15246;SDS011;7726;48.820;9.248;2023-03-19T01:30:32;8.33;;;6.27;;
15246;SDS011;7726;48.820;9.248;2023-03-19T01:32:59;10.60;;;6.10;;
15246;SDS011;7726;48.820;9.248;2023-03-19T01:35:26;9.40;;;6.10;;
15246;SDS011;7726;48.820;9.248;2023-03-19T01:37:54;6.53;;;5.83;;
15246;SDS011;7726;48.820;9.248;2023-03-19T01:40:22;6.93;;;5.33;;
15246;SDS011;7726;48.820;9.248;2023-03-19T01:42:50;9.63;;;6.20;;
15246;SDS011;7726;48.820;9.248;2023-03-19T01:45:30;6.23;;;5.63;;
15246;SDS011;7726;48.820;9.248;2023-03-19T01:47:58;10.23;;;6.00;;
15246;SDS011;7726;48.820;9.248;2023-03-19T01:50:27;8.73;;;6.10;;
15246;SDS011;7726;48.820;9.248;2023-03-19T01:52:55;8.57;;;6.33;;
15246;SDS011;7726;48.820;9.248;2023-03-19T01:55:23;8.57;;;6.43;;
15246;SDS011;7726;48.820;9.248;2023-03-19T01:57:51;10.00;;;6.80;;
15246;SDS011;7726;48.820;9.248;2023-03-19T02:00:19;10.87;;;6.67;;
15246;SDS011;7726;48.820;9.248;2023-03-19T02:02:47;8.75;;;6.53;;
15246;SDS011;7726;48.820;9.248;2023-03-19T02:05:16;9.77;;;6.40;;
15246;SDS011;7726;48.820;9.248;2023-03-19T02:07:49;9.03;;;6.23;;
15246;SDS011;7726;48.820;9.248;2023-03-19T02:10:18;8.27;;;6.13;;
15246;SDS011;7726;48.820;9.248;2023-03-19T02:12:47;11.60;;;6.43;;
15246;SDS011;7726;48.820;9.248;2023-03-19T02:15:14;7.37;;;5.63;;
15246;SDS011;7726;48.820;9.248;2023-03-19T02:17:42;8.47;;;5.23;;
15246;SDS011;7726;48.820;9.248;2023-03-19T02:20:11;8.13;;;5.53;;
15246;SDS011;7726;48.820;9.248;2023-03-19T02:22:40;7.07;;;5.57;;
15246;SDS011;7726;48.820;9.248;2023-03-19T02:25:10;7.10;;;5.40;;
15246;SDS011;7726;48.820;9.248;2023-03-19T02:27:40;7.87;;;5.30;;
15246;SDS011;7726;48.820;9.248;2023-03-19T02:30:17;7.20;;;5.10;;
15246;SDS011;7726;48.820;9.248;2023-03-19T02:32:45;6.53;;;5.00;;
15246;SDS011;7726;48.820;9.248;2023-03-19T02:35:12;11.57;;;5.77;;
15246;SDS011;7726;48.820;9.248;2023-03-19T02:37:39;7.13;;;4.93;;
15246;SDS011;7726;48.820;9.248;2023-03-19T02:40:07;6.17;;;4.40;;
15246;SDS011;7726;48.820;9.248;2023-03-19T02:42:35;7.27;;;4.47;;
15246;SDS011;7726;48.820;9.248;2023-03-19T02:45:04;4.77;;;4.13;;
15246;SDS011;7726;48.820;9.248;2023-03-19T02:47:32;8.30;;;4.40;;
15246;SDS011;7726;48.820;9.248;2023-03-19T02:50:00;5.83;;;3.83;;
15246;SDS011;7726;48.820;9.248;2023-03-19T02:52:27;4.90;;;3.60;;
15246;SDS011;7726;48.820;9.248;2023-03-19T02:54:54;3.73;;;3.40;;
15246;SDS011;7726;48.820;9.248;2023-03-19T02:57:21;6.23;;;3.80;;
15246;SDS011;7726;48.820;9.248;2023-03-19T02:59:48;5.53;;;3.57;;
15246;SDS011;7726;48.820;9.248;2023-03-19T03:02:17;4.23;;;3.40;;
15246;SDS011;7726;48.820;9.248;2023-03-19T03:04:44;3.60;;;3.30;;
15246;SDS011;7726;48.820;9.248;2023-03-19T03:07:11;5.33;;;3.73;;
15246;SDS011;7726;48.820;9.248;2023-03-19T03:09:38;5.43;;;4.13;;
15246;SDS011;7726;48.820;9.248;2023-03-19T03:12:06;4.03;;;3.70;;
15246;SDS011;7726;48.820;9.248;2023-03-19T03:14:33;7.57;;;3.93;;
15246;SDS011;7726;48.820;9.248;2023-03-19T03:17:00;4.17;;;3.17;;
15246;SDS011;7726;48.820;9.248;2023-03-19T03:19:29;3.27;;;2.67;;
15246;SDS011;7726;48.820;9.248;2023-03-19T03:21:56;3.33;;;2.67;;
15246;SDS011;7726;48.820;9.248;2023-03-19T03:24:24;2.73;;;2.43;;
15246;SDS011;7726;48.820;9.248;2023-03-19T03:26:51;3.17;;;2.60;;
15246;SDS011;7726;48.820;9.248;2023-03-19T03:29:19;3.97;;;2.97;;
15246;SDS011;7726;48.820;9.248;2023-03-19T03:31:46;2.63;;;2.23;;
15246;SDS011;7726;48.820;9.248;2023-03-19T03:34:13;2.93;;;2.67;;
15246;SDS011;7726;48.820;9.248;2023-03-19T03:36:41;3.03;;;2.73;;
15246;SDS011;7726;48.820;9.248;2023-03-19T03:39:10;5.20;;;2.87;;
15246;SDS011;7726;48.820;9.248;2023-03-19T03:41:37;3.53;;;2.73;;
15246;SDS011;7726;48.820;9.248;2023-03-19T03:44:05;3.87;;;2.90;;
15246;SDS011;7726;48.820;9.248;2023-03-19T03:46:32;4.57;;;3.13;;
15246;SDS011;7726;48.820;9.248;2023-03-19T03:49:00;4.47;;;3.57;;
15246;SDS011;7726;48.820;9.248;2023-03-19T03:51:27;4.73;;;3.70;;
15246;SDS011;7726;48.820;9.248;2023-03-19T03:53:55;6.07;;;4.10;;
15246;SDS011;7726;48.820;9.248;2023-03-19T03:56:23;6.53;;;4.07;;
15246;SDS011;7726;48.820;9.248;2023-03-19T03:58:50;5.70;;;4.23;;
15246;SDS011;7726;48.820;9.248;2023-03-19T04:01:17;5.73;;;3.73;;
15246;SDS011;7726;48.820;9.248;2023-03-19T04:03:44;3.80;;;3.50;;
15246;SDS011;7726;48.820;9.248;2023-03-19T04:06:12;6.13;;;4.27;;
15246;SDS011;7726;48.820;9.248;2023-03-19T04:08:40;4.47;;;4.00;;
15246;SDS011;7726;48.820;9.248;2023-03-19T04:11:09;5.73;;;4.57;;
15246;SDS011;7726;48.820;9.248;2023-03-19T04:13:36;6.23;;;3.87;;
15246;SDS011;7726;48.820;9.248;2023-03-19T04:16:03;5.33;;;3.93;;
15246;SDS011;7726;48.820;9.248;2023-03-19T04:18:31;4.77;;;3.90;;
15246;SDS011;7726;48.820;9.248;2023-03-19T04:20:58;5.67;;;3.70;;
15246;SDS011;7726;48.820;9.248;2023-03-19T04:23:25;5.13;;;3.97;;
15246;SDS011;7726;48.820;9.248;2023-03-19T04:25:56;7.97;;;4.07;;
15246;SDS011;7726;48.820;9.248;2023-03-19T04:28:25;5.17;;;3.63;;
15246;SDS011;7726;48.820;9.248;2023-03-19T04:30:56;5.10;;;3.80;;
15246;SDS011;7726;48.820;9.248;2023-03-19T04:33:24;5.70;;;4.27;;
15246;SDS011;7726;48.820;9.248;2023-03-19T04:35:51;3.90;;;3.50;;
15246;SDS011;7726;48.820;9.248;2023-03-19T04:38:19;6.33;;;4.10;;
15246;SDS011;7726;48.820;9.248;2023-03-19T04:40:46;4.27;;;3.73;;
15246;SDS011;7726;48.820;9.248;2023-03-19T04:43:13;5.60;;;3.50;;
15246;SDS011;7726;48.820;9.248;2023-03-19T04:45:42;3.60;;;3.13;;
15246;SDS011;7726;48.820;9.248;2023-03-19T04:48:10;3.83;;;3.43;;
15246;SDS011;7726;48.820;9.248;2023-03-19T04:50:37;4.23;;;3.27;;
15246;SDS011;7726;48.820;9.248;2023-03-19T04:53:05;3.73;;;3.00;;
15246;SDS011;7726;48.820;9.248;2023-03-19T04:55:33;3.43;;;3.03;;
15246;SDS011;7726;48.820;9.248;2023-03-19T04:58:01;3.33;;;3.03;;
15246;SDS011;7726;48.820;9.248;2023-03-19T05:00:28;3.80;;;3.20;;
15246;SDS011;7726;48.820;9.248;2023-03-19T05:02:56;5.07;;;3.43;;
15246;SDS011;7726;48.820;9.248;2023-03-19T05:05:24;3.60;;;3.30;;
15246;SDS011;7726;48.820;9.248;2023-03-19T05:07:51;5.50;;;3.30;;
15246;SDS011;7726;48.820;9.248;2023-03-19T05:10:18;5.70;;;3.73;;
15246;SDS011;7726;48.820;9.248;2023-03-19T05:12:45;4.43;;;3.50;;
15246;SDS011;7726;48.820;9.248;2023-03-19T05:15:13;4.70;;;3.60;;
15246;SDS011;7726;48.820;9.248;2023-03-19T05:17:40;3.40;;;3.17;;
15246;SDS011;7726;48.820;9.248;2023-03-19T05:20:10;5.60;;;3.87;;
15246;SDS011;7726;48.820;9.248;2023-03-19T05:22:38;7.63;;;4.60;;
15246;SDS011;7726;48.820;9.248;2023-03-19T05:25:05;6.30;;;4.20;;
15246;SDS011;7726;48.820;9.248;2023-03-19T05:27:32;4.50;;;4.10;;
15246;SDS011;7726;48.820;9.248;2023-03-19T05:30:00;5.33;;;4.83;;
15246;SDS011;7726;48.820;9.248;2023-03-19T05:32:27;5.43;;;3.87;;
15246;SDS011;7726;48.820;9.248;2023-03-19T05:34:54;5.87;;;3.77;;
15246;SDS011;7726;48.820;9.248;2023-03-19T05:37:24;5.67;;;3.83;;
15246;SDS011;7726;48.820;9.248;2023-03-19T05:39:51;5.70;;;3.93;;
15246;SDS011;7726;48.820;9.248;2023-03-19T05:42:18;5.07;;;3.70;;
15246;SDS011;7726;48.820;9.248;2023-03-19T05:44:45;4.40;;;3.50;;
15246;SDS011;7726;48.820;9.248;2023-03-19T05:47:13;4.17;;;3.80;;
15246;SDS011;7726;48.820;9.248;2023-03-19T05:49:40;3.50;;;3.00;;
15246;SDS011;7726;48.820;9.248;2023-03-19T05:52:07;4.17;;;3.47;;
15246;SDS011;7726;48.820;9.248;2023-03-19T05:54:35;6.43;;;3.70;;
15246;SDS011;7726;48.820;9.248;2023-03-19T05:57:03;4.27;;;3.30;;
15246;SDS011;7726;48.820;9.248;2023-03-19T05:59:30;3.93;;;3.53;;
15246;SDS011;7726;48.820;9.248;2023-03-19T06:01:57;4.57;;;3.53;;
15246;SDS011;7726;48.820;9.248;2023-03-19T06:04:25;3.87;;;3.47;;
15246;SDS011;7726;48.820;9.248;2023-03-19T06:06:52;4.87;;;3.40;;
15246;SDS011;7726;48.820;9.248;2023-03-19T06:09:19;4.73;;;3.20;;
15246;SDS011;7726;48.820;9.248;2023-03-19T06:11:48;3.77;;;3.37;;
15246;SDS011;7726;48.820;9.248;2023-03-19T06:14:15;3.87;;;3.00;;
15246;SDS011;7726;48.820;9.248;2023-03-19T06:16:42;5.93;;;3.20;;
15246;SDS011;7726;48.820;9.248;2023-03-19T06:19:10;3.33;;;2.70;;
15246;SDS011;7726;48.820;9.248;2023-03-19T06:21:37;4.17;;;3.10;;
15246;SDS011;7726;48.820;9.248;2023-03-19T06:24:04;3.43;;;3.10;;
15246;SDS011;7726;48.820;9.248;2023-03-19T06:26:31;3.30;;;3.00;;
15246;SDS011;7726;48.820;9.248;2023-03-19T06:29:00;3.50;;;2.90;;
15246;SDS011;7726;48.820;9.248;2023-03-19T06:31:27;5.57;;;2.73;;
15246;SDS011;7726;48.820;9.248;2023-03-19T06:33:54;3.17;;;2.87;;
15246;SDS011;7726;48.820;9.248;2023-03-19T06:36:21;3.57;;;3.23;;
15246;SDS011;7726;48.820;9.248;2023-03-19T06:38:50;4.63;;;3.40;;
15246;SDS011;7726;48.820;9.248;2023-03-19T06:41:17;3.60;;;3.30;;
15246;SDS011;7726;48.820;9.248;2023-03-19T06:43:45;2.87;;;2.57;;
15246;SDS011;7726;48.820;9.248;2023-03-19T06:46:13;5.10;;;3.07;;
15246;SDS011;7726;48.820;9.248;2023-03-19T06:48:40;3.57;;;3.17;;
15246;SDS011;7726;48.820;9.248;2023-03-19T06:51:08;3.60;;;2.73;;
15246;SDS011;7726;48.820;9.248;2023-03-19T06:53:35;4.37;;;2.90;;
15246;SDS011;7726;48.820;9.248;2023-03-19T06:56:02;4.90;;;2.70;;
15246;SDS011;7726;48.820;9.248;2023-03-19T06:58:29;4.83;;;2.90;;
15246;SDS011;7726;48.820;9.248;2023-03-19T07:00:57;4.80;;;2.87;;
15246;SDS011;7726;48.820;9.248;2023-03-19T07:03:25;3.27;;;2.80;;
15246;SDS011;7726;48.820;9.248;2023-03-19T07:05:52;3.17;;;2.73;;
15246;SDS011;7726;48.820;9.248;2023-03-19T07:08:19;3.22;;;2.92;;
15246;SDS011;7726;48.820;9.248;2023-03-19T07:10:47;4.13;;;2.63;;
15246;SDS011;7726;48.820;9.248;2023-03-19T07:13:14;2.92;;;2.60;;
15246;SDS011;7726;48.820;9.248;2023-03-19T07:15:41;3.22;;;2.92;;
15246;SDS011;7726;48.820;9.248;2023-03-19T07:18:08;4.05;;;2.92;;
15246;SDS011;7726;48.820;9.248;2023-03-19T07:20:37;4.20;;;2.70;;
15246;SDS011;7726;48.820;9.248;2023-03-19T07:23:04;4.25;;;3.00;;
15246;SDS011;7726;48.820;9.248;2023-03-19T07:25:32;2.85;;;2.58;;
15246;SDS011;7726;48.820;9.248;2023-03-19T07:27:59;4.95;;;2.58;;
15246;SDS011;7726;48.820;9.248;2023-03-19T07:30:26;3.40;;;2.65;;
15246;SDS011;7726;48.820;9.248;2023-03-19T07:32:53;4.10;;;2.80;;
15246;SDS011;7726;48.820;9.248;2023-03-19T07:35:20;6.70;;;2.83;;
15246;SDS011;7726;48.820;9.248;2023-03-19T07:37:49;2.67;;;2.40;;
15246;SDS011;7726;48.820;9.248;2023-03-19T07:40:16;5.00;;;2.60;;
15246;SDS011;7726;48.820;9.248;2023-03-19T07:42:43;4.07;;;3.00;;
15246;SDS011;7726;48.820;9.248;2023-03-19T07:45:10;3.10;;;2.80;;
15246;SDS011;7726;48.820;9.248;2023-03-19T07:47:38;3.23;;;2.83;;
15246;SDS011;7726;48.820;9.248;2023-03-19T07:50:05;5.15;;;2.90;;
15246;SDS011;7726;48.820;9.248;2023-03-19T07:52:33;4.22;;;3.30;;
15246;SDS011;7726;48.820;9.248;2023-03-19T07:55:01;3.00;;;2.63;;
15246;SDS011;7726;48.820;9.248;2023-03-19T07:57:28;3.03;;;2.50;;
15246;SDS011;7726;48.820;9.248;2023-03-19T07:59:56;2.92;;;2.65;;
15246;SDS011;7726;48.820;9.248;2023-03-19T08:02:24;5.95;;;2.78;;
15246;SDS011;7726;48.820;9.248;2023-03-19T08:04:51;2.67;;;2.30;;
15246;SDS011;7726;48.820;9.248;2023-03-19T08:07:18;2.90;;;2.60;;
15246;SDS011;7726;48.820;9.248;2023-03-19T08:09:45;2.65;;;2.33;;
15246;SDS011;7726;48.820;9.248;2023-03-19T08:12:14;3.15;;;2.50;;
15246;SDS011;7726;48.820;9.248;2023-03-19T08:14:41;3.50;;;2.65;;
15246;SDS011;7726;48.820;9.248;2023-03-19T08:17:08;4.32;;;2.78;;
15246;SDS011;7726;48.820;9.248;2023-03-19T08:19:36;3.78;;;2.78;;
15246;SDS011;7726;48.820;9.248;2023-03-19T08:22:03;3.10;;;2.60;;
15246;SDS011;7726;48.820;9.248;2023-03-19T08:24:30;3.33;;;2.60;;
15246;SDS011;7726;48.820;9.248;2023-03-19T08:26:57;3.08;;;2.30;;
15246;SDS011;7726;48.820;9.248;2023-03-19T08:29:26;2.97;;;2.53;;
15246;SDS011;7726;48.820;9.248;2023-03-19T08:31:53;3.28;;;2.72;;
15246;SDS011;7726;48.820;9.248;2023-03-19T08:34:21;3.60;;;2.90;;
15246;SDS011;7726;48.820;9.248;2023-03-19T08:36:48;3.70;;;2.97;;
15246;SDS011;7726;48.820;9.248;2023-03-19T08:39:16;3.13;;;2.83;;
15246;SDS011;7726;48.820;9.248;2023-03-19T08:41:43;3.70;;;2.50;;
15246;SDS011;7726;48.820;9.248;2023-03-19T08:44:10;4.30;;;2.47;;
15246;SDS011;7726;48.820;9.248;2023-03-19T08:46:39;2.92;;;2.33;;
15246;SDS011;7726;48.820;9.248;2023-03-19T08:49:07;3.92;;;2.17;;
15246;SDS011;7726;48.820;9.248;2023-03-19T08:51:34;3.53;;;2.40;;
15246;SDS011;7726;48.820;9.248;2023-03-19T08:54:01;4.40;;;2.25;;
15246;SDS011;7726;48.820;9.248;2023-03-19T08:56:28;2.60;;;2.40;;
15246;SDS011;7726;48.820;9.248;2023-03-19T08:58:55;2.90;;;2.40;;
15246;SDS011;7726;48.820;9.248;2023-03-19T09:01:23;3.55;;;2.60;;
15246;SDS011;7726;48.820;9.248;2023-03-19T09:03:51;3.90;;;2.92;;
15246;SDS011;7726;48.820;9.248;2023-03-19T09:06:18;3.00;;;2.70;;
15246;SDS011;7726;48.820;9.248;2023-03-19T09:08:45;4.75;;;3.42;;
15246;SDS011;7726;48.820;9.248;2023-03-19T09:11:13;3.88;;;2.88;;
15246;SDS011;7726;48.820;9.248;2023-03-19T09:13:40;3.20;;;2.95;;
15246;SDS011;7726;48.820;9.248;2023-03-19T09:16:08;4.10;;;3.10;;
15246;SDS011;7726;48.820;9.248;2023-03-19T09:18:35;3.53;;;2.88;;
15246;SDS011;7726;48.820;9.248;2023-03-19T09:21:04;6.70;;;3.50;;
15246;SDS011;7726;48.820;9.248;2023-03-19T09:23:33;5.95;;;3.13;;
15246;SDS011;7726;48.820;9.248;2023-03-19T09:26:00;6.05;;;2.67;;
15246;SDS011;7726;48.820;9.248;2023-03-19T09:28:28;3.13;;;2.83;;
15246;SDS011;7726;48.820;9.248;2023-03-19T09:30:55;3.28;;;2.78;;
15246;SDS011;7726;48.820;9.248;2023-03-19T09:33:22;6.80;;;2.83;;
15246;SDS011;7726;48.820;9.248;2023-03-19T09:35:49;4.57;;;2.45;;
15246;SDS011;7726;48.820;9.248;2023-03-19T09:38:19;3.97;;;2.47;;
15246;SDS011;7726;48.820;9.248;2023-03-19T09:40:47;4.45;;;2.35;;
15246;SDS011;7726;48.820;9.248;2023-03-19T09:43:23;3.88;;;1.90;;
15246;SDS011;7726;48.820;9.248;2023-03-19T09:45:55;3.10;;;2.20;;
15246;SDS011;7726;48.820;9.248;2023-03-19T09:48:27;2.17;;;1.98;;
15246;SDS011;7726;48.820;9.248;2023-03-19T09:50:56;3.00;;;2.00;;
15246;SDS011;7726;48.820;9.248;2023-03-19T09:53:29;2.60;;;2.20;;
15246;SDS011;7726;48.820;9.248;2023-03-19T09:55:59;4.60;;;2.50;;
15246;SDS011;7726;48.820;9.248;2023-03-19T09:58:30;3.42;;;2.13;;
15246;SDS011;7726;48.820;9.248;2023-03-19T10:00:58;4.72;;;2.60;;
15246;SDS011;7726;48.820;9.248;2023-03-19T10:03:30;3.65;;;2.40;;
15246;SDS011;7726;48.820;9.248;2023-03-19T10:06:02;3.30;;;2.85;;
15246;SDS011;7726;48.820;9.248;2023-03-19T10:08:39;3.10;;;2.25;;
15246;SDS011;7726;48.820;9.248;2023-03-19T10:11:13;2.67;;;2.35;;
15246;SDS011;7726;48.820;9.248;2023-03-19T10:13:46;3.45;;;2.00;;
15246;SDS011;7726;48.820;9.248;2023-03-19T10:16:18;3.17;;;2.30;;
15246;SDS011;7726;48.820;9.248;2023-03-19T10:18:46;2.75;;;2.10;;
15246;SDS011;7726;48.820;9.248;2023-03-19T10:21:16;3.95;;;2.13;;
15246;SDS011;7726;48.820;9.248;2023-03-19T10:23:46;2.65;;;2.17;;
15246;SDS011;7726;48.820;9.248;2023-03-19T10:26:15;2.05;;;1.92;;
15246;SDS011;7726;48.820;9.248;2023-03-19T10:28:43;4.88;;;2.20;;
15246;SDS011;7726;48.820;9.248;2023-03-19T10:31:21;3.58;;;2.08;;
15246;SDS011;7726;48.820;9.248;2023-03-19T10:33:51;3.05;;;2.15;;
15246;SDS011;7726;48.820;9.248;2023-03-19T10:36:20;3.10;;;1.83;;
15246;SDS011;7726;48.820;9.248;2023-03-19T10:38:49;1.83;;;1.73;;
15246;SDS011;7726;48.820;9.248;2023-03-19T10:41:22;3.28;;;1.88;;
15246;SDS011;7726;48.820;9.248;2023-03-19T10:43:57;3.63;;;2.10;;
15246;SDS011;7726;48.820;9.248;2023-03-19T10:46:25;3.38;;;2.83;;
15246;SDS011;7726;48.820;9.248;2023-03-19T10:48:52;2.45;;;2.03;;
15246;SDS011;7726;48.820;9.248;2023-03-19T10:51:20;2.40;;;2.20;;
15246;SDS011;7726;48.820;9.248;2023-03-19T10:53:50;2.60;;;2.15;;
15246;SDS011;7726;48.820;9.248;2023-03-19T10:56:18;2.75;;;1.90;;
15246;SDS011;7726;48.820;9.248;2023-03-19T11:01:32;3.85;;;1.90;;
15246;SDS011;7726;48.820;9.248;2023-03-19T11:04:01;2.70;;;1.83;;
15246;SDS011;7726;48.820;9.248;2023-03-19T11:06:30;2.40;;;1.60;;
15246;SDS011;7726;48.820;9.248;2023-03-19T11:09:00;3.08;;;2.33;;
15246;SDS011;7726;48.820;9.248;2023-03-19T11:11:33;3.53;;;2.05;;
15246;SDS011;7726;48.820;9.248;2023-03-19T11:14:05;2.00;;;1.90;;
15246;SDS011;7726;48.820;9.248;2023-03-19T11:16:45;3.20;;;1.60;;
15246;SDS011;7726;48.820;9.248;2023-03-19T11:19:15;2.05;;;1.90;;
15246;SDS011;7726;48.820;9.248;2023-03-19T11:21:47;5.95;;;1.50;;
15246;SDS011;7726;48.820;9.248;2023-03-19T11:24:20;2.17;;;1.55;;
15246;SDS011;7726;48.820;9.248;2023-03-19T11:26:52;2.45;;;1.70;;
15246;SDS011;7726;48.820;9.248;2023-03-19T11:29:20;1.80;;;1.52;;
15246;SDS011;7726;48.820;9.248;2023-03-19T11:31:49;1.52;;;1.30;;
15246;SDS011;7726;48.820;9.248;2023-03-19T11:34:22;4.70;;;2.00;;
15246;SDS011;7726;48.820;9.248;2023-03-19T11:36:54;4.28;;;1.75;;
15246;SDS011;7726;48.820;9.248;2023-03-19T11:39:26;2.83;;;1.70;;
15246;SDS011;7726;48.820;9.248;2023-03-19T11:42:01;1.92;;;1.58;;
15246;SDS011;7726;48.820;9.248;2023-03-19T11:44:36;3.58;;;1.83;;
15246;SDS011;7726;48.820;9.248;2023-03-19T11:47:06;3.20;;;1.50;;
15246;SDS011;7726;48.820;9.248;2023-03-19T11:49:45;2.75;;;1.45;;
15246;SDS011;7726;48.820;9.248;2023-03-19T11:52:17;2.03;;;1.40;;
15246;SDS011;7726;48.820;9.248;2023-03-19T11:54:54;2.58;;;1.70;;
15246;SDS011;7726;48.820;9.248;2023-03-19T11:57:27;1.95;;;1.73;;
15246;SDS011;7726;48.820;9.248;2023-03-19T12:00:02;1.65;;;1.55;;
15246;SDS011;7726;48.820;9.248;2023-03-19T12:02:50;4.50;;;1.60;;
15246;SDS011;7726;48.820;9.248;2023-03-19T12:05:23;1.90;;;1.50;;
15246;SDS011;7726;48.820;9.248;2023-03-19T12:08:02;2.85;;;1.73;;
15246;SDS011;7726;48.820;9.248;2023-03-19T12:10:36;2.35;;;1.80;;
15246;SDS011;7726;48.820;9.248;2023-03-19T12:13:10;1.75;;;1.63;;
15246;SDS011;7726;48.820;9.248;2023-03-19T12:15:44;4.28;;;1.60;;
15246;SDS011;7726;48.820;9.248;2023-03-19T12:18:15;4.72;;;1.52;;
15246;SDS011;7726;48.820;9.248;2023-03-19T12:20:49;1.90;;;1.40;;
15246;SDS011;7726;48.820;9.248;2023-03-19T12:23:22;2.25;;;1.48;;
15246;SDS011;7726;48.820;9.248;2023-03-19T12:26:01;2.53;;;2.13;;
15246;SDS011;7726;48.820;9.248;2023-03-19T12:28:33;3.10;;;1.50;;
15246;SDS011;7726;48.820;9.248;2023-03-19T12:31:17;2.00;;;1.60;;
15246;SDS011;7726;48.820;9.248;2023-03-19T12:33:51;3.45;;;1.50;;
15246;SDS011;7726;48.820;9.248;2023-03-19T12:36:22;4.18;;;1.70;;
15246;SDS011;7726;48.820;9.248;2023-03-19T12:38:52;2.72;;;1.50;;
15246;SDS011;7726;48.820;9.248;2023-03-19T12:41:22;2.97;;;1.77;;
15246;SDS011;7726;48.820;9.248;2023-03-19T12:43:53;2.75;;;1.63;;
15246;SDS011;7726;48.820;9.248;2023-03-19T12:46:22;4.30;;;1.45;;
15246;SDS011;7726;48.820;9.248;2023-03-19T12:48:53;2.33;;;1.65;;
15246;SDS011;7726;48.820;9.248;2023-03-19T12:51:24;2.70;;;1.77;;
15246;SDS011;7726;48.820;9.248;2023-03-19T12:53:53;2.92;;;1.80;;
15246;SDS011;7726;48.820;9.248;2023-03-19T12:56:23;2.92;;;1.58;;
15246;SDS011;7726;48.820;9.248;2023-03-19T12:58:55;2.40;;;1.75;;
15246;SDS011;7726;48.820;9.248;2023-03-19T13:01:26;2.70;;;1.77;;
15246;SDS011;7726;48.820;9.248;2023-03-19T13:03:57;3.42;;;1.70;;
15246;SDS011;7726;48.820;9.248;2023-03-19T13:06:27;1.85;;;1.65;;
15246;SDS011;7726;48.820;9.248;2023-03-19T13:08:58;3.35;;;1.83;;
15246;SDS011;7726;48.820;9.248;2023-03-19T13:11:33;1.88;;;1.75;;
15246;SDS011;7726;48.820;9.248;2023-03-19T13:14:02;2.75;;;1.75;;
15246;SDS011;7726;48.820;9.248;2023-03-19T13:16:32;2.78;;;1.95;;
15246;SDS011;7726;48.820;9.248;2023-03-19T13:19:09;3.22;;;2.10;;
15246;SDS011;7726;48.820;9.248;2023-03-19T13:21:40;5.25;;;2.10;;
15246;SDS011;7726;48.820;9.248;2023-03-19T13:24:11;5.13;;;1.83;;
15246;SDS011;7726;48.820;9.248;2023-03-19T13:26:41;3.15;;;2.20;;
15246;SDS011;7726;48.820;9.248;2023-03-19T13:29:13;3.47;;;2.15;;
15246;SDS011;7726;48.820;9.248;2023-03-19T13:31:42;13.18;;;3.30;;
15246;SDS011;7726;48.820;9.248;2023-03-19T13:34:17;14.20;;;3.60;;
15246;SDS011;7726;48.820;9.248;2023-03-19T13:36:46;6.28;;;2.65;;
15246;SDS011;7726;48.820;9.248;2023-03-19T13:39:14;4.80;;;2.58;;
15246;SDS011;7726;48.820;9.248;2023-03-19T13:41:50;5.07;;;2.40;;
15246;SDS011;7726;48.820;9.248;2023-03-19T13:44:34;6.40;;;2.15;;
15246;SDS011;7726;48.820;9.248;2023-03-19T13:50:09;3.53;;;1.67;;
15246;SDS011;7726;48.820;9.248;2023-03-19T13:52:47;1.77;;;1.60;;
15246;SDS011;7726;48.820;9.248;2023-03-19T13:55:28;2.15;;;1.70;;
15246;SDS011;7726;48.820;9.248;2023-03-19T13:57:59;2.15;;;1.55;;
15246;SDS011;7726;48.820;9.248;2023-03-19T14:03:22;3.28;;;1.50;;
15246;SDS011;7726;48.820;9.248;2023-03-19T14:05:50;2.45;;;1.52;;
15246;SDS011;7726;48.820;9.248;2023-03-19T14:08:19;1.70;;;1.48;;
15246;SDS011;7726;48.820;9.248;2023-03-19T14:10:47;1.52;;;1.42;;
15246;SDS011;7726;48.820;9.248;2023-03-19T14:13:18;2.50;;;1.80;;
15246;SDS011;7726;48.820;9.248;2023-03-19T14:15:48;3.22;;;2.00;;
15246;SDS011;7726;48.820;9.248;2023-03-19T14:18:16;2.17;;;1.50;;
15246;SDS011;7726;48.820;9.248;2023-03-19T14:20:44;2.60;;;2.35;;
15246;SDS011;7726;48.820;9.248;2023-03-19T14:23:17;3.60;;;1.90;;
15246;SDS011;7726;48.820;9.248;2023-03-19T14:25:57;3.30;;;2.33;;
15246;SDS011;7726;48.820;9.248;2023-03-19T14:28:28;2.67;;;2.38;;
15246;SDS011;7726;48.820;9.248;2023-03-19T14:30:58;1.70;;;1.60;;
15246;SDS011;7726;48.820;9.248;2023-03-19T14:33:28;1.60;;;1.50;;
15246;SDS011;7726;48.820;9.248;2023-03-19T14:35:58;1.65;;;1.38;;
15246;SDS011;7726;48.820;9.248;2023-03-19T14:38:31;1.92;;;1.83;;
15246;SDS011;7726;48.820;9.248;2023-03-19T14:41:00;1.95;;;1.25;;
15246;SDS011;7726;48.820;9.248;2023-03-19T14:43:35;3.38;;;1.77;;
15246;SDS011;7726;48.820;9.248;2023-03-19T14:46:08;1.80;;;1.48;;
15246;SDS011;7726;48.820;9.248;2023-03-19T14:48:50;1.45;;;1.35;;
15246;SDS011;7726;48.820;9.248;2023-03-19T14:51:35;1.73;;;1.63;;
15246;SDS011;7726;48.820;9.248;2023-03-19T14:54:17;1.70;;;1.50;;
15246;SDS011;7726;48.820;9.248;2023-03-19T14:56:46;1.70;;;1.60;;
15246;SDS011;7726;48.820;9.248;2023-03-19T14:59:15;2.92;;;2.10;;
15246;SDS011;7726;48.820;9.248;2023-03-19T15:01:43;3.28;;;1.73;;
15246;SDS011;7726;48.820;9.248;2023-03-19T15:04:13;4.22;;;1.98;;
15246;SDS011;7726;48.820;9.248;2023-03-19T15:06:42;2.60;;;2.08;;
15246;SDS011;7726;48.820;9.248;2023-03-19T15:09:14;3.95;;;2.28;;
15246;SDS011;7726;48.820;9.248;2023-03-19T15:11:52;4.57;;;2.28;;
15246;SDS011;7726;48.820;9.248;2023-03-19T15:14:35;2.00;;;1.90;;
15246;SDS011;7726;48.820;9.248;2023-03-19T15:17:08;2.42;;;1.90;;
15246;SDS011;7726;48.820;9.248;2023-03-19T15:19:37;2.40;;;1.65;;
15246;SDS011;7726;48.820;9.248;2023-03-19T15:22:08;2.85;;;1.92;;